Time;durP1;ratioP1;P1;durP2;ratioP2;P2;SDS_P1;SDS_P2;PMS_P1;PMS_P2;Temp;Humidity;BMP_temperature;BMP_pressure;BME280_temperature;BME280_humidity;BME280_pressure;Samples;Min_cycle;Max_cycle;Signal;HPM_P1;HPM_P2
2021/12/25 00:00:37;;;;;;;1.50;0.80;;;5.80;99.90;;;;;;5058040;28;20068;-60
2021/12/25 00:03:06;;;;;;;2.38;0.98;;;5.80;99.90;;;;;;5063275;28;20071;-63
2021/12/25 00:05:34;;;;;;;2.80;1.20;;;5.80;99.90;;;;;;5072819;28;20047;-61
2021/12/25 00:08:02;;;;;;;2.15;0.93;;;5.80;99.90;;;;;;5071602;28;20051;-60
2021/12/25 00:10:30;;;;;;;1.23;0.85;;;5.70;99.90;;;;;;5059652;28;20045;-60
2021/12/25 00:12:58;;;;;;;2.70;0.88;;;5.70;99.90;;;;;;5061574;28;20051;-60
2021/12/25 00:15:28;;;;;;;1.88;1.15;;;5.80;99.90;;;;;;5024463;28;20044;-60
2021/12/25 00:17:56;;;;;;;2.00;1.10;;;5.70;99.90;;;;;;5060380;28;20487;-62
2021/12/25 00:20:24;;;;;;;3.53;1.00;;;5.70;99.90;;;;;;5069769;28;20044;-62
2021/12/25 00:22:52;;;;;;;1.30;1.00;;;5.80;99.90;;;;;;5063459;28;20060;-62
2021/12/25 00:25:21;;;;;;;1.40;0.90;;;5.70;99.90;;;;;;5051282;28;20146;-65
2021/12/25 00:30:37;;;;;;;1.13;1.02;;;5.80;99.90;;;;;;5042211;28;20044;-62
2021/12/25 00:33:19;;;;;;;1.70;0.82;;;5.80;99.90;;;;;;5037322;28;20045;-63
2021/12/25 00:35:47;;;;;;;3.60;0.95;;;5.80;99.90;;;;;;5069947;28;20048;-64
2021/12/25 00:38:15;;;;;;;0.93;0.67;;;5.80;99.90;;;;;;5050722;28;20052;-62
2021/12/25 00:40:42;;;;;;;2.55;0.80;;;5.80;99.90;;;;;;5069404;28;20056;-63
2021/12/25 00:43:10;;;;;;;1.50;1.13;;;5.80;99.90;;;;;;5081611;28;20048;-63
2021/12/25 00:45:38;;;;;;;3.55;1.20;;;5.80;99.90;;;;;;5058484;28;20053;-61
2021/12/25 00:48:06;;;;;;;0.80;0.77;;;5.80;99.90;;;;;;5054490;28;20514;-62
2021/12/25 00:50:34;;;;;;;2.55;1.00;;;5.70;99.90;;;;;;5051176;28;20044;-63
2021/12/25 00:53:01;;;;;;;3.42;1.10;;;5.80;99.90;;;;;;5046235;28;20052;-63
2021/12/25 00:55:29;;;;;;;0.77;0.70;;;5.80;99.90;;;;;;5069290;28;20041;-64
2021/12/25 00:57:57;;;;;;;3.80;1.13;;;5.70;99.90;;;;;;5045749;28;20052;-61
2021/12/25 01:00:24;;;;;;;2.22;1.08;;;5.80;99.90;;;;;;5043158;28;20049;-63
2021/12/25 01:02:52;;;;;;;0.80;0.80;;;5.80;99.90;;;;;;5031905;28;20510;-62
2021/12/25 01:05:21;;;;;;;2.25;0.85;;;5.80;99.90;;;;;;5046295;28;20633;-61
2021/12/25 01:07:49;;;;;;;1.75;1.23;;;5.80;99.90;;;;;;5035439;28;20047;-61
2021/12/25 01:10:23;;;;;;;2.63;1.10;;;5.80;99.90;;;;;;5051544;28;20044;-62
2021/12/25 01:13:08;;;;;;;2.65;1.08;;;5.80;99.90;;;;;;5045195;28;20806;-61
2021/12/25 01:30:11;;;;;;;3.58;1.40;;;5.80;99.90;;;;;;5022088;28;20076;-63
2021/12/25 01:42:00;;;;;;;4.70;1.42;;;5.80;99.90;;;;;;5067216;28;20518;-63
2021/12/25 01:49:59;;;;;;;4.30;1.30;;;5.80;99.90;;;;;;5014258;28;20460;-63
2021/12/25 01:52:29;;;;;;;6.07;1.63;;;5.80;99.90;;;;;;5055713;28;20785;-69
2021/12/25 01:55:00;;;;;;;5.15;1.42;;;5.80;99.90;;;;;;5050348;28;20063;-67
2021/12/25 01:57:30;;;;;;;2.17;1.40;;;5.80;99.90;;;;;;5041953;28;20040;-67
2021/12/25 01:59:58;;;;;;;;;;;5.80;99.90;;;;;;5070190;28;20462;-66
2021/12/25 02:02:26;;;;;;;2.25;1.40;;;5.80;99.90;;;;;;5031158;28;19920;-67
2021/12/25 02:04:55;;;;;;;5.45;1.58;;;5.80;99.90;;;;;;5049118;28;20044;-65
2021/12/25 02:07:22;;;;;;;2.88;1.20;;;5.80;99.90;;;;;;5039861;28;20488;-68
2021/12/25 02:09:50;;;;;;;8.68;1.60;;;5.80;99.90;;;;;;5044131;28;20056;-62
2021/12/25 02:12:18;;;;;;;2.08;1.45;;;5.80;99.90;;;;;;5053775;28;20506;-62
2021/12/25 02:14:47;;;;;;;2.83;1.60;;;5.80;99.90;;;;;;5067702;28;20499;-66
2021/12/25 02:19:55;;;;;;;1.88;1.40;;;5.80;99.90;;;;;;5047955;28;20048;-61
2021/12/25 02:22:29;;;;;;;2.42;1.65;;;5.80;99.90;;;;;;5061778;28;20500;-65
2021/12/25 02:24:56;;;;;;;3.60;1.52;;;5.80;99.90;;;;;;5066630;28;20127;-68
2021/12/25 02:27:25;;;;;;;5.78;1.52;;;5.80;99.90;;;;;;5061263;28;20049;-65
2021/12/25 02:29:53;;;;;;;2.42;1.52;;;5.80;99.90;;;;;;5040824;28;20052;-63
2021/12/25 02:32:21;;;;;;;5.30;1.70;;;5.80;99.90;;;;;;5054191;28;20053;-67
2021/12/25 02:34:50;;;;;;;3.83;1.48;;;5.70;99.90;;;;;;5045871;28;20044;-65
2021/12/25 02:37:18;;;;;;;3.25;1.40;;;5.70;99.90;;;;;;5019373;28;20068;-64
2021/12/25 02:39:46;;;;;;;3.97;1.33;;;5.70;99.90;;;;;;5051447;28;20052;-68
2021/12/25 02:42:14;;;;;;;2.35;1.20;;;5.70;99.90;;;;;;5065304;28;20048;-61
2021/12/25 02:44:42;;;;;;;2.60;1.17;;;5.70;99.90;;;;;;5033621;28;20067;-61
2021/12/25 02:47:16;;;;;;;4.25;1.10;;;5.70;99.90;;;;;;5034331;28;20041;-61
2021/12/25 02:49:51;;;;;;;2.35;1.23;;;5.70;99.90;;;;;;5033493;28;20041;-62
2021/12/25 02:52:20;;;;;;;2.65;1.17;;;5.70;99.90;;;;;;5047919;28;20040;-61
2021/12/25 02:54:48;;;;;;;5.88;1.17;;;5.70;99.90;;;;;;5071586;28;20056;-61
2021/12/25 02:57:16;;;;;;;4.43;1.10;;;5.70;99.90;;;;;;5043659;28;20051;-61
2021/12/25 02:59:44;;;;;;;3.65;1.13;;;5.70;99.90;;;;;;5047970;28;20033;-62
2021/12/25 03:02:17;;;;;;;3.47;1.05;;;5.70;99.90;;;;;;5042116;28;20037;-61
2021/12/25 03:04:48;;;;;;;3.78;1.20;;;5.60;99.90;;;;;;5048864;28;20530;-65
2021/12/25 03:07:17;;;;;;;3.42;0.90;;;5.70;99.90;;;;;;5046885;28;20052;-64
2021/12/25 03:09:46;;;;;;;3.58;1.38;;;5.60;99.90;;;;;;5033521;28;20041;-62
2021/12/25 03:12:16;;;;;;;7.93;1.30;;;5.60;99.90;;;;;;5044853;28;20056;-61
2021/12/25 03:17:34;;;;;;;5.20;1.25;;;5.70;99.90;;;;;;5033357;28;20412;-60
2021/12/25 03:20:05;;;;;;;4.32;1.58;;;5.60;99.90;;;;;;5038719;28;20403;-61
2021/12/25 03:22:34;;;;;;;3.17;1.00;;;5.60;99.90;;;;;;5047686;28;20041;-60
2021/12/25 03:25:08;;;;;;;7.00;1.33;;;5.60;99.90;;;;;;5052119;28;20053;-61
2021/12/25 03:27:39;;;;;;;3.78;1.23;;;5.60;99.90;;;;;;5052013;28;20041;-61
2021/12/25 03:30:09;;;;;;;2.92;0.82;;;5.60;99.90;;;;;;5033242;28;20049;-61
2021/12/25 03:32:37;;;;;;;4.40;1.10;;;5.70;99.90;;;;;;5040023;28;20045;-60
2021/12/25 03:35:06;;;;;;;4.57;0.75;;;5.60;99.90;;;;;;5053087;28;20056;-61
2021/12/25 03:37:34;;;;;;;6.38;0.90;;;5.60;99.90;;;;;;5045272;28;20053;-61
2021/12/25 03:40:04;;;;;;;4.47;0.63;;;5.70;99.90;;;;;;5033094;28;20373;-61
2021/12/25 03:42:32;;;;;;;3.90;0.80;;;5.70;99.90;;;;;;5039512;28;20048;-61
2021/12/25 03:45:03;;;;;;;4.95;1.23;;;5.60;99.90;;;;;;5070147;28;20040;-61
2021/12/25 03:47:36;;;;;;;8.80;0.80;;;5.60;99.90;;;;;;5052504;28;20056;-61
2021/12/25 03:58:29;;;;;;;5.03;0.90;;;5.60;99.90;;;;;;5050402;28;20044;-61
2021/12/25 04:01:04;;;;;;;6.07;1.00;;;5.60;99.90;;;;;;5056379;28;20040;-61
2021/12/25 04:03:48;;;;;;;2.10;0.55;;;5.60;99.90;;;;;;5065143;28;20045;-61
2021/12/25 04:06:16;;;;;;;4.10;0.70;;;5.60;99.90;;;;;;5045370;28;20036;-61
2021/12/25 04:08:46;;;;;;;8.98;0.93;;;5.60;99.90;;;;;;5056345;28;20471;-60
2021/12/25 04:11:26;;;;;;;3.30;0.50;;;5.60;99.90;;;;;;5055893;28;20045;-61
2021/12/25 04:13:55;;;;;;;0.40;0.40;;;5.60;99.90;;;;;;5054143;28;20068;-60
2021/12/25 04:16:28;;;;;;;3.97;0.50;;;5.60;99.90;;;;;;5036656;28;20033;-61
2021/12/25 04:18:56;;;;;;;3.15;0.65;;;5.60;99.90;;;;;;5042090;28;20154;-60
2021/12/25 04:21:24;;;;;;;3.45;0.50;;;5.60;99.90;;;;;;5045088;28;20052;-60
2021/12/25 04:23:52;;;;;;;3.20;0.73;;;5.60;99.90;;;;;;5056234;28;20045;-61
2021/12/25 04:26:23;;;;;;;5.05;0.60;;;5.60;99.90;;;;;;5067009;28;20057;-64
2021/12/25 04:31:45;;;;;;;2.63;0.52;;;5.50;99.90;;;;;;5040958;28;20040;-62
2021/12/25 05:01:44;;;;;;;1.20;0.30;;;5.50;99.90;;;;;;5041097;28;20052;-63
2021/12/25 05:04:45;;;;;;;2.33;0.50;;;5.40;99.90;;;;;;5044452;28;20044;-62
2021/12/25 05:07:29;;;;;;;5.00;0.93;;;5.50;99.90;;;;;;5035598;28;20052;-61
2021/12/25 05:09:58;;;;;;;2.85;0.63;;;5.50;99.90;;;;;;5029867;28;20048;-61
2021/12/25 05:12:27;;;;;;;;;;;5.50;99.90;;;;;;5036133;28;20044;-65
2021/12/25 05:14:54;;;;;;;3.95;0.30;;;5.50;99.90;;;;;;5078907;28;19921;-64
2021/12/25 05:17:22;;;;;;;1.20;0.20;;;5.50;99.90;;;;;;5051553;28;20048;-65
2021/12/25 05:19:50;;;;;;;3.50;0.65;;;5.40;99.90;;;;;;5054823;28;20048;-65
2021/12/25 05:22:18;;;;;;;1.30;0.40;;;5.40;99.90;;;;;;5036912;28;20045;-65
2021/12/25 05:24:46;;;;;;;2.72;0.47;;;5.40;99.90;;;;;;5047563;28;20479;-65
2021/12/25 05:27:15;;;;;;;2.10;0.38;;;5.40;99.90;;;;;;5036825;28;20041;-65
2021/12/25 05:29:46;;;;;;;2.22;0.35;;;5.40;99.90;;;;;;5039558;28;20049;-65
2021/12/25 05:32:22;;;;;;;0.52;0.30;;;5.40;99.90;;;;;;5035237;28;20049;-62
2021/12/25 05:35:22;;;;;;;;;;;5.40;99.90;;;;;;5047583;28;20048;-61
2021/12/25 05:37:59;;;;;;;1.30;0.80;;;5.40;99.90;;;;;;5034903;28;19920;-62
2021/12/25 05:40:53;;;;;;;0.73;0.20;;;5.40;99.90;;;;;;5049460;28;20049;-62
2021/12/25 05:43:22;;;;;;;2.55;0.32;;;5.40;99.90;;;;;;5046107;28;20048;-62
2021/12/25 05:45:50;;;;;;;2.83;0.30;;;5.50;99.90;;;;;;5044734;28;20037;-63
2021/12/25 05:48:28;;;;;;;0.30;0.30;;;5.40;99.90;;;;;;5030484;28;20049;-65
2021/12/25 05:51:19;;;;;;;1.00;0.40;;;5.40;99.90;;;;;;5062620;28;20048;-62
2021/12/25 05:54:06;;;;;;;0.63;0.38;;;5.40;99.90;;;;;;5054594;28;20064;-65
2021/12/25 05:56:53;;;;;;;0.40;0.40;;;5.40;99.90;;;;;;5052866;28;20045;-62
2021/12/25 05:59:40;;;;;;;13.68;1.23;;;5.40;99.90;;;;;;5031079;28;20044;-61
2021/12/25 06:02:41;;;;;;;1.50;0.40;;;5.50;99.90;;;;;;5047689;28;20388;-61
2021/12/25 06:05:22;;;;;;;2.67;0.47;;;5.40;99.90;;;;;;5063609;28;20045;-61
2021/12/25 06:07:51;;;;;;;1.67;0.47;;;5.40;99.90;;;;;;5047274;28;20471;-60
2021/12/25 06:10:19;;;;;;;1.75;0.60;;;5.40;99.90;;;;;;5046676;28;20294;-61
2021/12/25 06:12:49;;;;;;;2.80;0.85;;;5.40;99.90;;;;;;5045213;28;20047;-62
2021/12/25 06:15:23;;;;;;;1.40;0.60;;;5.40;99.90;;;;;;5064020;28;20044;-61
2021/12/25 06:17:56;;;;;;;2.67;0.60;;;5.40;99.90;;;;;;5064181;28;20063;-61
2021/12/25 06:20:41;;;;;;;0.50;0.43;;;5.30;99.90;;;;;;5027515;28;20120;-62
2021/12/25 06:23:13;;;;;;;2.55;0.50;;;5.40;99.90;;;;;;5056390;28;20048;-61
2021/12/25 06:25:56;;;;;;;2.15;0.65;;;5.40;99.90;;;;;;5040643;28;20063;-60
2021/12/25 06:28:59;;;;;;;2.47;0.47;;;5.40;99.90;;;;;;5063812;28;20048;-61
2021/12/25 06:31:30;;;;;;;2.70;0.50;;;5.40;99.90;;;;;;5067335;28;20048;-60
2021/12/25 06:34:24;;;;;;;2.17;0.60;;;5.30;99.90;;;;;;5024365;28;20053;-62
2021/12/25 06:37:25;;;;;;;;;;;5.30;99.90;;;;;;5045074;28;20060;-62
2021/12/25 06:40:25;;;;;;;2.58;0.60;;;5.30;99.90;;;;;;5028617;28;19921;-63
2021/12/25 06:42:53;;;;;;;2.70;0.50;;;5.30;99.90;;;;;;5025192;28;20049;-62
2021/12/25 06:45:21;;;;;;;2.47;0.70;;;5.30;99.90;;;;;;5067549;28;20416;-61
2021/12/25 06:47:49;;;;;;;1.13;0.52;;;5.20;99.90;;;;;;5050069;28;20048;-62
2021/12/25 06:50:35;;;;;;;1.17;0.30;;;5.20;99.90;;;;;;5063585;28;20331;-61
2021/12/25 06:53:44;;;;;;;3.42;0.60;;;5.20;99.90;;;;;;5044627;28;20059;-61
2021/12/25 06:56:35;;;;;;;3.22;0.63;;;5.20;99.90;;;;;;5037935;28;20052;-61
2021/12/25 06:59:06;;;;;;;;;;;5.20;99.90;;;;;;5046835;28;20196;-61
2021/12/25 07:01:39;;;;;;;3.53;0.80;;;5.20;99.90;;;;;;5047094;28;20222;-64
2021/12/25 07:04:14;;;;;;;1.70;0.60;;;5.10;99.90;;;;;;5045549;28;20040;-62
2021/12/25 07:07:00;;;;;;;1.40;0.73;;;5.10;99.90;;;;;;5048070;28;20399;-61
2021/12/25 07:09:42;;;;;;;4.78;0.60;;;5.10;99.90;;;;;;5056984;28;20049;-61
2021/12/25 07:12:36;;;;;;;2.75;1.10;;;5.10;99.90;;;;;;5046327;28;20865;-61
2021/12/25 07:15:22;;;;;;;3.30;0.80;;;5.10;99.90;;;;;;5049100;28;20044;-62
2021/12/25 07:18:08;;;;;;;2.72;1.00;;;5.10;99.90;;;;;;5072558;28;20400;-62
2021/12/25 07:21:03;;;;;;;3.10;0.80;;;5.00;99.90;;;;;;5054822;28;20064;-61
2021/12/25 07:23:46;;;;;;;8.38;1.52;;;4.90;99.90;;;;;;5035379;28;20056;-64
2021/12/25 07:26:33;;;;;;;4.10;0.80;;;4.90;99.90;;;;;;5029309;28;20040;-64
2021/12/25 07:29:22;;;;;;;3.97;0.70;;;4.90;99.90;;;;;;5051836;28;20257;-63
2021/12/25 07:31:49;;;;;;;6.40;1.00;;;4.80;99.90;;;;;;5068963;28;20044;-63
2021/12/25 07:34:17;;;;;;;3.10;0.90;;;4.80;99.90;;;;;;5067969;28;20053;-61
2021/12/25 07:36:45;;;;;;;3.90;0.75;;;4.70;99.90;;;;;;5049623;28;20053;-64
2021/12/25 07:39:13;;;;;;;6.43;1.90;;;4.70;99.90;;;;;;5047896;28;20056;-62
2021/12/25 07:41:42;;;;;;;4.18;1.00;;;4.70;99.90;;;;;;5054176;28;20045;-61
2021/12/25 07:44:20;;;;;;;5.43;1.10;;;4.60;99.90;;;;;;5046856;28;20052;-62
2021/12/25 07:46:53;;;;;;;1.98;0.70;;;4.60;99.90;;;;;;5052585;28;20059;-60
2021/12/25 07:49:22;;;;;;;2.03;1.17;;;4.60;99.90;;;;;;5070315;28;20048;-64
2021/12/25 07:51:49;;;;;;;4.13;1.20;;;4.50;99.90;;;;;;5066096;28;20048;-60
2021/12/25 07:54:26;;;;;;;3.05;1.40;;;4.50;99.90;;;;;;5048939;28;20040;-61
2021/12/25 07:56:54;;;;;;;4.25;1.27;;;4.50;99.90;;;;;;5053856;28;20067;-64
2021/12/25 07:59:22;;;;;;;4.82;2.05;;;4.50;99.90;;;;;;5069390;28;20400;-65
2021/12/25 08:01:50;;;;;;;4.03;1.38;;;4.50;99.90;;;;;;5067803;28;20040;-63
2021/12/25 08:04:19;;;;;;;2.35;0.98;;;4.40;99.90;;;;;;5062470;28;20059;-62
2021/12/25 08:06:49;;;;;;;7.60;1.85;;;4.40;99.90;;;;;;5038640;28;20052;-65
2021/12/25 08:09:27;;;;;;;3.42;1.20;;;4.40;99.90;;;;;;5039767;28;20049;-63
2021/12/25 08:12:00;;;;;;;3.15;1.33;;;4.40;99.90;;;;;;5063972;28;20056;-65
2021/12/25 08:14:29;;;;;;;4.45;1.25;;;4.40;99.90;;;;;;5066998;28;20040;-63
2021/12/25 08:17:00;;;;;;;1.48;0.82;;;4.30;99.90;;;;;;5056859;28;20366;-62
2021/12/25 08:19:48;;;;;;;5.05;1.02;;;4.30;99.90;;;;;;5083130;28;20403;-62
2021/12/25 08:22:35;;;;;;;2.25;0.90;;;4.30;99.90;;;;;;5066725;28;20463;-64
2021/12/25 08:25:24;;;;;;;3.67;1.10;;;4.30;99.90;;;;;;5050401;28;20516;-63
2021/12/25 08:28:18;;;;;;;3.03;1.13;;;4.30;99.90;;;;;;5029256;28;20052;-61
2021/12/25 08:31:05;;;;;;;2.42;1.27;;;4.30;99.90;;;;;;5065428;28;20048;-66
2021/12/25 08:34:03;;;;;;;4.97;1.38;;;4.30;99.90;;;;;;4996118;28;20069;-62
2021/12/25 08:36:51;;;;;;;4.50;1.15;;;4.30;99.90;;;;;;5049830;28;20056;-61
2021/12/25 08:39:19;;;;;;;6.80;1.30;;;4.30;99.90;;;;;;5048975;28;20400;-61
2021/12/25 08:41:47;;;;;;;4.15;1.27;;;4.30;99.90;;;;;;5065029;28;20044;-60
2021/12/25 08:44:33;;;;;;;1.25;0.60;;;4.20;99.90;;;;;;5065454;28;20040;-62
2021/12/25 08:47:04;;;;;;;1.75;0.90;;;4.20;99.90;;;;;;5066868;28;20055;-62
2021/12/25 08:49:36;;;;;;;1.65;0.80;;;4.10;99.90;;;;;;5059559;28;20051;-62
2021/12/25 08:52:08;;;;;;;3.83;1.35;;;4.10;99.90;;;;;;5051506;28;20420;-62
2021/12/25 08:54:36;;;;;;;3.08;0.90;;;4.10;99.90;;;;;;5062572;28;20045;-62
2021/12/25 08:57:04;;;;;;;3.47;1.13;;;4.00;99.90;;;;;;5055424;28;20119;-62
2021/12/25 08:59:33;;;;;;;3.42;1.70;;;4.00;99.90;;;;;;5054229;28;20045;-63
2021/12/25 09:02:05;;;;;;;6.05;1.08;;;4.00;99.90;;;;;;5063415;28;20404;-61
2021/12/25 09:04:38;;;;;;;3.50;1.40;;;4.00;99.90;;;;;;5048875;28;20067;-65
2021/12/25 09:07:07;;;;;;;1.77;0.90;;;4.00;99.90;;;;;;5059486;28;20052;-61
2021/12/25 09:09:36;;;;;;;2.72;0.82;;;4.00;99.90;;;;;;5062184;28;20052;-61
2021/12/25 09:12:06;;;;;;;3.00;0.90;;;3.90;99.90;;;;;;5065512;28;20399;-61
2021/12/25 09:14:33;;;;;;;3.38;0.77;;;3.90;99.90;;;;;;5064002;28;20055;-62
2021/12/25 09:17:01;;;;;;;3.38;1.00;;;3.90;99.90;;;;;;5067116;28;20080;-61
2021/12/25 09:19:29;;;;;;;3.92;1.00;;;3.90;99.90;;;;;;5066884;28;20060;-60
2021/12/25 09:21:57;;;;;;;6.53;1.20;;;3.90;99.90;;;;;;5078298;28;20056;-61
2021/12/25 09:24:25;;;;;;;7.18;2.72;;;3.90;99.90;;;;;;5068919;28;20048;-60
2021/12/25 09:26:53;;;;;;;20.33;7.90;;;3.90;99.90;;;;;;5069434;28;20052;-62
2021/12/25 09:29:20;;;;;;;14.63;8.75;;;3.80;99.90;;;;;;5051013;28;20067;-62
2021/12/25 09:31:48;;;;;;;9.00;3.28;;;3.80;99.90;;;;;;5069087;28;20048;-61
2021/12/25 09:34:16;;;;;;;7.45;2.33;;;3.80;99.90;;;;;;5042975;28;20416;-62
2021/12/25 09:36:44;;;;;;;9.10;2.72;;;3.80;99.90;;;;;;5059391;28;20459;-66
2021/12/25 09:39:12;;;;;;;6.70;1.70;;;3.80;99.90;;;;;;5036067;28;20043;-61
2021/12/25 09:41:40;;;;;;;4.85;1.75;;;3.70;99.90;;;;;;5063631;28;20056;-64
2021/12/25 09:44:08;;;;;;;6.18;2.17;;;3.70;99.90;;;;;;5050322;28;20053;-61
2021/12/25 09:46:36;;;;;;;3.30;1.00;;;3.70;99.90;;;;;;5056754;28;20049;-66
2021/12/25 09:49:04;;;;;;;5.93;2.33;;;3.80;99.90;;;;;;5056642;28;20056;-65
2021/12/25 09:51:32;;;;;;;3.83;1.17;;;3.70;99.90;;;;;;5039993;28;20053;-64
2021/12/25 09:54:07;;;;;;;3.03;1.13;;;3.70;99.90;;;;;;5058253;28;20044;-60
2021/12/25 09:56:38;;;;;;;4.47;1.13;;;3.70;99.90;;;;;;5061246;28;20399;-63
2021/12/25 09:59:07;;;;;;;11.07;1.65;;;3.60;99.90;;;;;;5066886;28;20384;-64
2021/12/25 10:01:40;;;;;;;;;;;3.60;99.90;;;;;;5051202;28;20044;-63
2021/12/25 10:04:10;;;;;;;8.02;3.20;;;3.60;99.90;;;;;;5065811;28;19928;-62
2021/12/25 10:06:45;;;;;;;12.80;3.95;;;3.60;99.90;;;;;;5054834;28;20048;-63
2021/12/25 10:09:21;;;;;;;7.55;2.20;;;3.50;99.90;;;;;;5064781;28;20055;-66
2021/12/25 10:12:09;;;;;;;10.98;2.00;;;3.50;99.90;;;;;;5062033;28;20492;-65
2021/12/25 10:14:42;;;;;;;13.85;2.45;;;3.50;99.90;;;;;;5063101;28;20056;-65
2021/12/25 10:17:22;;;;;;;9.10;2.30;;;3.50;99.90;;;;;;5034939;28;20170;-65
2021/12/25 10:20:03;;;;;;;9.20;2.45;;;3.50;99.90;;;;;;5059852;28;20048;-67
2021/12/25 10:22:32;;;;;;;8.43;1.60;;;3.50;99.90;;;;;;5058389;28;20045;-68
2021/12/25 10:25:10;;;;;;;6.68;1.90;;;3.50;99.90;;;;;;5066073;28;20048;-66
2021/12/25 10:27:49;;;;;;;11.10;2.13;;;3.50;99.90;;;;;;5067970;28;20044;-70
2021/12/25 10:30:16;;;;;;;9.45;2.03;;;3.50;99.90;;;;;;5064708;28;20049;-64
2021/12/25 10:32:44;;;;;;;9.15;2.53;;;3.40;99.90;;;;;;5064866;28;20071;-64
2021/12/25 10:35:18;;;;;;;9.35;2.42;;;3.40;99.90;;;;;;5045773;28;20048;-66
2021/12/25 10:37:47;;;;;;;5.80;2.42;;;3.40;99.90;;;;;;5039098;28;20421;-68
2021/12/25 10:40:32;;;;;;;5.75;2.42;;;3.40;99.90;;;;;;5044597;28;20044;-66
2021/12/25 10:43:03;;;;;;;13.43;2.00;;;3.40;99.90;;;;;;5061627;28;20049;-65
2021/12/25 10:45:33;;;;;;;7.85;2.05;;;3.40;99.90;;;;;;5064818;28;20037;-62
2021/12/25 10:48:06;;;;;;;10.52;2.53;;;3.40;99.90;;;;;;5035901;28;20041;-64
2021/12/25 10:50:42;;;;;;;6.40;2.33;;;3.40;99.90;;;;;;5057598;28;20056;-66
2021/12/25 10:53:41;;;;;;;9.55;2.35;;;3.40;99.90;;;;;;5060174;28;20045;-66
2021/12/25 10:56:20;;;;;;;9.18;2.65;;;3.40;99.90;;;;;;5041270;28;20056;-61
2021/12/25 10:58:48;;;;;;;11.18;2.20;;;3.40;99.90;;;;;;5062308;28;20052;-63
2021/12/25 11:01:22;;;;;;;12.00;2.10;;;3.30;99.90;;;;;;5063164;28;20041;-66
2021/12/25 11:03:52;;;;;;;10.85;2.47;;;3.30;99.90;;;;;;5052756;28;20052;-63
2021/12/25 11:06:20;;;;;;;6.35;2.00;;;3.30;99.90;;;;;;5063698;28;20040;-64
2021/12/25 11:08:51;;;;;;;16.63;2.95;;;3.30;99.90;;;;;;5056593;28;20045;-60
2021/12/25 11:11:22;;;;;;;17.50;4.53;;;3.30;99.90;;;;;;5054148;28;20408;-62
2021/12/25 11:13:53;;;;;;;9.77;2.10;;;3.30;99.90;;;;;;5066873;28;20059;-62
2021/12/25 11:16:27;;;;;;;11.70;3.35;;;3.30;99.90;;;;;;5071611;28;20053;-62
2021/12/25 11:19:05;;;;;;;12.02;2.85;;;3.30;99.90;;;;;;5053339;28;20044;-62
2021/12/25 11:21:46;;;;;;;11.93;2.42;;;3.30;99.90;;;;;;5037409;28;20436;-62
2021/12/25 11:24:25;;;;;;;12.25;3.30;;;3.20;99.90;;;;;;5065100;28;20040;-60
2021/12/25 11:27:00;;;;;;;7.57;2.90;;;3.20;99.90;;;;;;5054031;28;20053;-60
2021/12/25 11:29:31;;;;;;;15.27;2.90;;;3.20;99.90;;;;;;5033125;28;20045;-61
2021/12/25 11:32:01;;;;;;;5.85;2.33;;;3.20;99.90;;;;;;5051407;28;20147;-62
2021/12/25 11:34:29;;;;;;;;;;;3.30;99.90;;;;;;5071426;28;20044;-60
2021/12/25 11:37:07;;;;;;;11.25;3.10;;;3.30;99.90;;;;;;5071200;28;20090;-64
2021/12/25 11:39:39;;;;;;;15.18;3.60;;;3.20;99.90;;;;;;5051343;28;20488;-63
2021/12/25 11:42:11;;;;;;;23.60;4.03;;;3.20;99.90;;;;;;5052722;28;20200;-61
2021/12/25 11:44:48;;;;;;;15.05;3.20;;;3.30;99.90;;;;;;5052989;28;20529;-61
2021/12/25 11:47:38;;;;;;;12.88;3.15;;;3.30;99.90;;;;;;5053141;28;20483;-62
2021/12/25 11:50:29;;;;;;;12.70;2.60;;;3.30;99.90;;;;;;5070978;28;20060;-63
2021/12/25 11:53:26;;;;;;;9.98;3.10;;;3.30;99.90;;;;;;5065743;28;20049;-62
2021/12/25 11:58:52;;;;;;;11.77;2.78;;;3.40;99.90;;;;;;5070898;28;20059;-62
2021/12/25 12:01:20;;;;;;;9.50;2.95;;;3.30;99.90;;;;;;5070480;28;20387;-61
2021/12/25 12:03:57;;;;;;;7.55;2.42;;;3.40;99.90;;;;;;5070228;28;20048;-61
2021/12/25 12:06:46;;;;;;;9.23;2.83;;;3.40;99.90;;;;;;5070608;28;20066;-60
2021/12/25 12:09:19;;;;;;;14.35;4.05;;;3.40;99.90;;;;;;5055298;28;20569;-61
2021/12/25 12:12:28;;;;;;;16.73;4.22;;;3.40;99.90;;;;;;5037840;28;20060;-61
2021/12/25 12:15:55;;;;;;;12.18;4.15;;;3.40;99.90;;;;;;5027787;28;20057;-61
2021/12/25 12:18:46;;;;;;;14.20;3.30;;;3.40;99.90;;;;;;5027358;28;20045;-62
2021/12/25 12:21:17;;;;;;;13.35;3.50;;;3.40;99.90;;;;;;5030777;28;20487;-61
2021/12/25 12:26:44;;;;;;;9.43;3.28;;;3.40;99.90;;;;;;5070279;28;20492;-60
2021/12/25 12:29:15;;;;;;;8.98;2.83;;;3.50;99.90;;;;;;5069763;28;20052;-61
2021/12/25 12:31:49;;;;;;;14.57;4.05;;;3.50;99.90;;;;;;5070058;28;20048;-61
2021/12/25 12:34:30;;;;;;;23.70;4.28;;;3.50;99.90;;;;;;5051720;28;20059;-61
2021/12/25 12:37:13;;;;;;;10.48;3.88;;;3.50;99.90;;;;;;5027835;28;20056;-62
2021/12/25 12:39:43;;;;;;;14.77;3.25;;;3.50;99.90;;;;;;5050375;28;20504;-61
2021/12/25 12:42:13;;;;;;;19.10;4.15;;;3.50;99.90;;;;;;5064007;28;20056;-62
2021/12/25 12:45:36;;;;;;;10.80;3.63;;;3.50;99.90;;;;;;5068066;28;20396;-61
2021/12/25 12:48:16;;;;;;;13.00;4.53;;;3.50;99.90;;;;;;5065712;28;20396;-64
2021/12/25 12:50:52;;;;;;;;;;;3.50;99.90;;;;;;5064136;28;20059;-61
2021/12/25 12:53:22;;;;;;;13.75;4.03;;;3.50;99.90;;;;;;5065247;28;19920;-63
2021/12/25 12:56:02;;;;;;;10.02;2.90;;;3.50;99.90;;;;;;5057248;28;20382;-64
2021/12/25 12:58:32;;;;;;;13.30;3.92;;;3.60;99.90;;;;;;5049041;28;20041;-66
2021/12/25 13:01:10;;;;;;;11.55;3.40;;;3.50;99.90;;;;;;5057832;28;20416;-66
2021/12/25 13:03:38;;;;;;;12.75;3.95;;;3.50;99.90;;;;;;5062772;28;20044;-66
2021/12/25 13:06:14;;;;;;;12.23;3.72;;;3.50;99.90;;;;;;5063806;28;20051;-66
2021/12/25 13:08:44;;;;;;;13.85;3.20;;;3.50;99.90;;;;;;5039979;28;20044;-65
2021/12/25 13:11:22;;;;;;;17.52;3.70;;;3.50;99.90;;;;;;5067725;28;20518;-64
2021/12/25 13:13:58;;;;;;;13.93;4.20;;;3.50;99.90;;;;;;5066941;28;20054;-65
2021/12/25 13:16:36;;;;;;;15.70;4.10;;;3.50;99.90;;;;;;5040473;28;20400;-64
2021/12/25 13:19:06;;;;;;;10.25;4.05;;;3.50;99.90;;;;;;5028544;28;20056;-64
2021/12/25 13:21:40;;;;;;;14.23;3.90;;;3.50;99.90;;;;;;5058000;28;20051;-61
2021/12/25 13:24:16;;;;;;;16.08;4.38;;;3.50;99.90;;;;;;5058367;28;20048;-62
2021/12/25 13:26:48;;;;;;;11.75;3.60;;;3.60;99.90;;;;;;5030919;28;20718;-61
2021/12/25 13:29:22;;;;;;;12.18;3.47;;;3.50;99.90;;;;;;5036966;28;20060;-61
2021/12/25 13:31:52;;;;;;;13.57;4.05;;;3.60;99.90;;;;;;5067201;28;20792;-61
2021/12/25 13:34:23;;;;;;;10.15;3.45;;;3.60;99.90;;;;;;5068155;28;20488;-60
2021/12/25 13:36:56;;;;;;;10.57;3.97;;;3.60;99.90;;;;;;5054857;28;20041;-62
2021/12/25 13:39:31;;;;;;;6.18;3.10;;;3.50;99.90;;;;;;5055925;28;20056;-62
2021/12/25 13:42:12;;;;;;;18.23;4.43;;;3.60;99.90;;;;;;5035964;28;20391;-62
2021/12/25 13:44:44;;;;;;;11.95;3.88;;;3.60;99.90;;;;;;5065651;28;20290;-62
2021/12/25 13:47:23;;;;;;;12.07;3.95;;;3.60;99.90;;;;;;5043510;28;20056;-61
2021/12/25 13:50:17;;;;;;;16.23;5.07;;;3.60;99.90;;;;;;5033250;28;20064;-63
2021/12/25 13:53:06;;;;;;;12.48;3.67;;;3.60;99.90;;;;;;5041579;28;20052;-61
2021/12/25 13:55:35;;;;;;;12.27;3.33;;;3.60;99.90;;;;;;5063091;28;20411;-61
2021/12/25 13:58:13;;;;;;;12.43;3.65;;;3.60;99.90;;;;;;5066391;28;20048;-63
2021/12/25 14:00:46;;;;;;;11.13;3.50;;;3.60;99.90;;;;;;5051367;28;20052;-61
2021/12/25 14:03:19;;;;;;;18.80;5.72;;;3.60;99.90;;;;;;5057911;28;20400;-62
2021/12/25 14:05:50;;;;;;;13.55;5.68;;;3.60;99.90;;;;;;5065729;28;20044;-61
2021/12/25 14:08:24;;;;;;;15.43;3.50;;;3.60;99.90;;;;;;5065878;28;20048;-62
2021/12/25 14:10:59;;;;;;;18.88;4.82;;;3.60;99.90;;;;;;5050914;28;20328;-61
2021/12/25 14:13:31;;;;;;;14.20;3.90;;;3.60;99.90;;;;;;5064830;28;20056;-62
2021/12/25 14:15:59;;;;;;;13.73;3.72;;;3.60;99.90;;;;;;5057594;28;20056;-60
2021/12/25 14:18:37;;;;;;;13.48;4.25;;;3.60;99.90;;;;;;5067583;28;20052;-62
2021/12/25 14:21:18;;;;;;;16.80;4.82;;;3.50;99.90;;;;;;5067862;28;20515;-61
2021/12/25 14:23:58;;;;;;;16.45;4.38;;;3.50;99.90;;;;;;5064525;28;20037;-60
2021/12/25 14:26:26;;;;;;;18.17;4.70;;;3.50;99.90;;;;;;5061055;28;20063;-60
2021/12/25 14:28:54;;;;;;;16.90;3.70;;;3.50;99.90;;;;;;5056286;28;20044;-63
2021/12/25 14:31:22;;;;;;;22.15;4.13;;;3.50;99.90;;;;;;5058873;28;20041;-61
2021/12/25 14:33:53;;;;;;;17.25;4.63;;;3.50;99.90;;;;;;5059058;28;20044;-62
2021/12/25 14:36:21;;;;;;;10.10;4.43;;;3.50;99.90;;;;;;5035277;28;20522;-60
2021/12/25 14:38:50;;;;;;;11.25;3.90;;;3.50;99.90;;;;;;5024818;28;20401;-61
2021/12/25 14:41:33;;;;;;;14.98;5.72;;;3.50;99.90;;;;;;5015211;28;20406;-61
2021/12/25 14:44:21;;;;;;;13.35;4.43;;;3.50;99.90;;;;;;5023090;28;20049;-61
2021/12/25 14:47:14;;;;;;;9.82;3.72;;;3.50;99.90;;;;;;5015026;28;20041;-60
2021/12/25 14:49:45;;;;;;;13.07;4.63;;;3.50;99.90;;;;;;5027005;28;20060;-60
2021/12/25 14:52:16;;;;;;;16.52;3.92;;;3.50;99.90;;;;;;5022188;28;20041;-62
2021/12/25 14:54:44;;;;;;;13.98;4.43;;;3.50;99.90;;;;;;5020340;28;20064;-63